Time;durP1;ratioP1;P1;durP2;ratioP2;P2;SDS_P1;SDS_P2;PMS_P1;PMS_P2;Temp;Humidity;BMP_temperature;BMP_pressure;BME280_temperature;BME280_humidity;BME280_pressure;Samples;Min_cycle;Max_cycle;Signal;HPM_P1;HPM_P2
2023/07/18 00:02:15;;;;;;;0.65;0.35;;;20.00;1.00;;;;;;5076976;28;20430;-58
2023/07/18 00:04:42;;;;;;;1.10;0.40;;;19.90;1.00;;;;;;5076566;28;20758;-59
2023/07/18 00:07:09;;;;;;;0.80;0.60;;;19.70;1.00;;;;;;5076789;28;20501;-57
2023/07/18 00:09:37;;;;;;;1.40;0.40;;;19.60;1.00;;;;;;5075318;28;20431;-58
2023/07/18 00:12:06;;;;;;;1.10;0.40;;;19.50;1.00;;;;;;5075001;28;20851;-58
2023/07/18 00:14:33;;;;;;;1.10;0.40;;;19.50;1.00;;;;;;5074971;28;20510;-58
2023/07/18 00:17:00;;;;;;;1.20;0.40;;;19.50;1.00;;;;;;5075008;28;20428;-58
2023/07/18 00:19:29;;;;;;;1.50;0.40;;;19.50;1.00;;;;;;5074939;28;20428;-58
2023/07/18 00:21:57;;;;;;;0.70;0.40;;;19.50;1.00;;;;;;5074781;28;20459;-56
2023/07/18 00:24:24;;;;;;;1.40;0.45;;;19.60;1.00;;;;;;5075258;28;20442;-58
2023/07/18 00:26:51;;;;;;;1.20;0.50;;;19.60;1.00;;;;;;5075732;28;20454;-57
2023/07/18 00:29:20;;;;;;;1.20;0.40;;;19.70;1.00;;;;;;5076133;28;20431;-58
2023/07/18 00:31:47;;;;;;;1.15;0.40;;;19.70;1.00;;;;;;5075316;28;20434;-58
2023/07/18 00:34:14;;;;;;;0.80;0.40;;;19.70;1.00;;;;;;5075989;28;20456;-58
2023/07/18 00:36:41;;;;;;;0.90;0.40;;;19.70;1.00;;;;;;5076486;28;20431;-58
2023/07/18 00:39:08;;;;;;;0.80;0.40;;;19.70;1.00;;;;;;5075821;28;20427;-59
2023/07/18 00:41:35;;;;;;;0.63;0.40;;;19.70;1.00;;;;;;5075922;28;20462;-58
2023/07/18 00:44:02;;;;;;;0.70;0.40;;;19.70;1.00;;;;;;5076208;28;20485;-55
2023/07/18 00:46:31;;;;;;;1.40;0.40;;;19.70;1.00;;;;;;5076332;28;20431;-58
2023/07/18 00:48:58;;;;;;;1.00;0.40;;;19.50;1.00;;;;;;5075761;28;20434;-58
2023/07/18 00:51:25;;;;;;;1.10;0.35;;;19.30;1.00;;;;;;5075698;28;20489;-58
2023/07/18 00:53:53;;;;;;;0.90;0.50;;;19.10;1.00;;;;;;5075234;28;20419;-58
2023/07/18 00:56:20;;;;;;;1.23;0.40;;;19.00;1.00;;;;;;5075285;28;20514;-58
2023/07/18 00:58:47;;;;;;;0.80;0.30;;;19.00;1.00;;;;;;5075684;28;20431;-58
2023/07/18 01:01:14;;;;;;;0.80;0.30;;;18.90;1.00;;;;;;5075711;28;20560;-57
2023/07/18 01:03:44;;;;;;;0.70;0.30;;;19.10;1.00;;;;;;5074293;28;20434;-58
2023/07/18 01:06:11;;;;;;;0.57;0.30;;;19.10;1.00;;;;;;5074735;28;20435;-57
2023/07/18 01:08:39;;;;;;;1.05;0.35;;;19.20;1.00;;;;;;5074443;28;20909;-58
2023/07/18 01:11:07;;;;;;;0.60;0.30;;;19.20;1.00;;;;;;5074187;28;20843;-58
2023/07/18 01:13:34;;;;;;;0.63;0.30;;;19.20;1.00;;;;;;5073636;28;20518;-58
2023/07/18 01:16:01;;;;;;;0.70;0.30;;;19.30;1.00;;;;;;5073769;28;20518;-57
2023/07/18 01:18:28;;;;;;;1.00;0.40;;;19.30;1.00;;;;;;5075138;28;20427;-58
2023/07/18 01:20:58;;;;;;;0.70;0.30;;;19.30;1.00;;;;;;5074512;28;20507;-58
2023/07/18 01:23:26;;;;;;;1.05;0.30;;;19.30;1.00;;;;;;5073942;28;20427;-59
2023/07/18 01:25:54;;;;;;;0.60;0.30;;;19.20;1.00;;;;;;5074321;28;20449;-58
2023/07/18 01:28:21;;;;;;;0.60;0.30;;;19.20;1.00;;;;;;5073990;28;20438;-56
2023/07/18 01:30:48;;;;;;;1.00;0.30;;;19.20;1.00;;;;;;5074034;28;20438;-57
2023/07/18 01:33:15;;;;;;;0.70;0.30;;;19.20;1.00;;;;;;5074500;28;20467;-58
2023/07/18 01:35:42;;;;;;;0.50;0.30;;;19.20;1.00;;;;;;5074258;28;20415;-58
2023/07/18 01:38:10;;;;;;;0.60;0.40;;;19.30;1.00;;;;;;5075087;28;20420;-56
2023/07/18 01:40:38;;;;;;;1.00;0.40;;;19.30;1.00;;;;;;5074260;28;20428;-57
2023/07/18 01:43:05;;;;;;;0.90;0.30;;;19.40;1.00;;;;;;5074369;28;20481;-59
2023/07/18 01:45:32;;;;;;;1.70;0.40;;;19.30;1.00;;;;;;5074323;28;20446;-59
2023/07/18 01:47:59;;;;;;;1.40;0.40;;;19.30;1.00;;;;;;5073517;28;20419;-58
2023/07/18 01:50:26;;;;;;;0.70;0.40;;;19.20;1.00;;;;;;5072571;28;20426;-56
2023/07/18 01:52:53;;;;;;;0.80;0.40;;;19.10;1.00;;;;;;5073712;28;20529;-57
2023/07/18 01:55:20;;;;;;;1.60;0.40;;;19.10;1.00;;;;;;5073653;28;20851;-57
2023/07/18 01:57:50;;;;;;;0.93;0.40;;;18.90;14.90;;;;;;5072679;28;20442;-57
2023/07/18 02:00:19;;;;;;;0.60;0.40;;;18.80;78.10;;;;;;5072763;28;20434;-57
2023/07/18 02:02:48;;;;;;;0.80;0.40;;;18.70;99.90;;;;;;5073212;28;20513;-56
2023/07/18 02:05:17;;;;;;;0.70;0.40;;;18.70;99.90;;;;;;5073715;28;21177;-57
2023/07/18 02:07:44;;;;;;;0.70;0.40;;;18.70;99.90;;;;;;5074397;28;20526;-59
2023/07/18 02:10:13;;;;;;;0.70;0.40;;;18.80;99.90;;;;;;5073662;28;20500;-58
2023/07/18 02:12:40;;;;;;;0.70;0.32;;;18.80;99.90;;;;;;5074316;28;20565;-58
2023/07/18 02:15:13;;;;;;;1.15;0.40;;;18.90;99.90;;;;;;5074727;28;20428;-59
2023/07/18 02:17:40;;;;;;;0.85;0.50;;;18.90;99.90;;;;;;5074665;28;20416;-59
2023/07/18 02:20:09;;;;;;;1.10;0.40;;;19.00;99.90;;;;;;5074905;28;20427;-58
2023/07/18 02:22:37;;;;;;;1.20;0.40;;;18.90;99.90;;;;;;5074318;28;20439;-58
2023/07/18 02:25:04;;;;;;;0.70;0.40;;;18.90;99.90;;;;;;5074505;28;20439;-58
2023/07/18 02:27:32;;;;;;;0.80;0.40;;;18.80;99.90;;;;;;5074328;28;20431;-59
2023/07/18 02:30:00;;;;;;;1.00;0.40;;;18.80;99.90;;;;;;5073143;28;20900;-58
2023/07/18 02:32:29;;;;;;;0.63;0.40;;;18.70;99.90;;;;;;5074652;28;20473;-59
2023/07/18 02:34:56;;;;;;;0.90;0.40;;;18.70;99.90;;;;;;5073656;28;20502;-59
2023/07/18 02:37:24;;;;;;;0.90;0.40;;;18.70;99.90;;;;;;5073767;28;20426;-58
2023/07/18 02:39:51;;;;;;;1.00;0.30;;;18.80;99.90;;;;;;5074548;28;20496;-57
2023/07/18 02:42:19;;;;;;;1.40;0.30;;;18.90;99.90;;;;;;5074418;28;20435;-58
2023/07/18 02:44:46;;;;;;;1.00;0.40;;;18.90;99.90;;;;;;5074118;28;20538;-60
2023/07/18 02:47:13;;;;;;;1.38;0.40;;;18.80;99.90;;;;;;5073490;28;20412;-58
2023/07/18 02:49:42;;;;;;;0.90;0.40;;;18.70;99.90;;;;;;5073399;28;20431;-58
2023/07/18 02:52:09;;;;;;;0.80;0.40;;;18.70;99.90;;;;;;5074240;28;20523;-57
2023/07/18 02:54:36;;;;;;;0.60;0.40;;;18.70;99.90;;;;;;5074569;28;20431;-58
2023/07/18 02:57:04;;;;;;;0.90;0.50;;;18.70;99.90;;;;;;5073838;28;20490;-58
2023/07/18 02:59:32;;;;;;;0.77;0.40;;;18.50;99.90;;;;;;5073860;28;20469;-57
2023/07/18 03:01:59;;;;;;;0.60;0.40;;;18.50;99.90;;;;;;5073551;28;20432;-57
2023/07/18 03:04:26;;;;;;;0.90;0.40;;;18.40;99.90;;;;;;5073513;28;20435;-58
2023/07/18 03:06:55;;;;;;;1.17;0.40;;;18.50;99.90;;;;;;5073900;28;20878;-58
2023/07/18 03:09:22;;;;;;;0.70;0.40;;;18.60;99.90;;;;;;5073700;28;20785;-58
2023/07/18 03:11:50;;;;;;;0.70;0.30;;;18.60;99.90;;;;;;5073057;28;20499;-58
2023/07/18 03:14:18;;;;;;;0.80;0.40;;;18.50;99.90;;;;;;5072342;28;20511;-58
2023/07/18 03:16:47;;;;;;;1.00;0.30;;;18.40;99.90;;;;;;5074096;28;20435;-55
2023/07/18 03:19:15;;;;;;;0.60;0.32;;;18.50;99.90;;;;;;5072924;28;20438;-58
2023/07/18 03:21:43;;;;;;;0.60;0.30;;;18.50;99.90;;;;;;5072980;28;20467;-58
2023/07/18 03:24:11;;;;;;;1.90;0.40;;;18.40;99.90;;;;;;5077699;28;20431;-57
2023/07/18 03:26:39;;;;;;;0.90;0.30;;;18.40;99.90;;;;;;5076746;28;20789;-58
2023/07/18 03:29:06;;;;;;;0.98;0.40;;;18.30;99.90;;;;;;5077029;28;20504;-58
2023/07/18 03:31:34;;;;;;;0.90;0.40;;;18.40;99.90;;;;;;5075921;28;20862;-58
2023/07/18 03:34:04;;;;;;;0.70;0.40;;;18.50;99.90;;;;;;5076415;28;20874;-56
2023/07/18 03:36:31;;;;;;;0.80;0.40;;;18.50;99.90;;;;;;5077530;28;20526;-56
2023/07/18 03:38:58;;;;;;;1.15;0.40;;;18.30;99.90;;;;;;5077421;28;20739;-58
2023/07/18 03:41:27;;;;;;;1.10;0.40;;;18.20;99.90;;;;;;5076964;28;20424;-58
2023/07/18 03:43:54;;;;;;;0.60;0.40;;;18.20;99.90;;;;;;5077020;28;20879;-58
2023/07/18 03:46:22;;;;;;;0.80;0.30;;;18.00;99.90;;;;;;5076944;28;20727;-57
2023/07/18 03:48:51;;;;;;;0.70;0.30;;;17.80;99.90;;;;;;5077100;28;20517;-58
2023/07/18 03:51:18;;;;;;;1.10;0.40;;;17.70;99.90;;;;;;5076273;28;20424;-55
2023/07/18 03:53:45;;;;;;;0.90;0.40;;;17.50;99.90;;;;;;5076401;28;20431;-55
2023/07/18 03:56:13;;;;;;;0.70;0.40;;;17.50;99.90;;;;;;5076319;28;20415;-54
2023/07/18 03:58:41;;;;;;;0.60;0.38;;;17.60;99.90;;;;;;5076513;28;20855;-53
2023/07/18 04:01:10;;;;;;;0.60;0.30;;;17.60;99.90;;;;;;5076179;28;20431;-54
2023/07/18 04:03:37;;;;;;;0.80;0.40;;;17.60;99.90;;;;;;5076312;28;20514;-51
2023/07/18 04:06:05;;;;;;;0.90;0.50;;;17.60;99.90;;;;;;5076745;28;20528;-52
2023/07/18 04:08:32;;;;;;;1.30;0.35;;;17.60;99.90;;;;;;5077234;28;20431;-56
2023/07/18 04:11:00;;;;;;;0.80;0.40;;;17.60;99.90;;;;;;5076898;28;20427;-58
2023/07/18 04:13:27;;;;;;;1.05;0.40;;;17.70;99.90;;;;;;5076114;28;20459;-57
2023/07/18 04:15:56;;;;;;;1.13;0.40;;;17.80;99.90;;;;;;5076079;28;20489;-57
2023/07/18 04:18:23;;;;;;;0.60;0.40;;;17.80;99.90;;;;;;5075632;28;20432;-57
2023/07/18 04:20:50;;;;;;;1.60;0.47;;;17.90;99.90;;;;;;5075122;28;20778;-57
2023/07/18 04:23:18;;;;;;;1.38;0.70;;;17.90;99.90;;;;;;5074525;28;20769;-58
2023/07/18 04:25:56;;;;;;;1.20;0.40;;;17.90;1.00;;;;;;5075402;28;20434;-53
2023/07/18 04:28:23;;;;;;;0.88;0.40;;;17.80;1.00;;;;;;5075233;28;20506;-58
2023/07/18 04:30:50;;;;;;;0.77;0.40;;;17.60;1.00;;;;;;5075144;28;20432;-58
2023/07/18 04:33:19;;;;;;;0.60;0.40;;;17.60;1.00;;;;;;5073037;28;20902;-59
2023/07/18 04:35:46;;;;;;;0.70;0.40;;;17.70;1.00;;;;;;5074276;28;20416;-58
2023/07/18 04:38:13;;;;;;;0.82;0.50;;;17.70;1.00;;;;;;5075501;28;20423;-58
2023/07/18 04:40:40;;;;;;;1.10;0.50;;;17.80;1.00;;;;;;5075728;28;20463;-57
2023/07/18 04:43:08;;;;;;;0.90;0.40;;;18.00;1.00;;;;;;5074829;28;20434;-58
2023/07/18 04:45:41;;;;;;;2.75;0.50;;;18.00;1.00;;;;;;5073797;28;20450;-58
2023/07/18 04:48:08;;;;;;;1.05;0.50;;;17.90;1.00;;;;;;5074256;28;20430;-59
2023/07/18 04:50:37;;;;;;;1.40;0.52;;;17.90;1.00;;;;;;5074409;28;20419;-58
2023/07/18 04:53:04;;;;;;;1.05;0.50;;;17.90;1.00;;;;;;5073925;28;20788;-58
2023/07/18 04:55:31;;;;;;;1.25;0.50;;;18.00;1.00;;;;;;5073444;28;20427;-58
2023/07/18 04:57:58;;;;;;;0.90;0.47;;;18.10;1.00;;;;;;5074025;28;20438;-58
2023/07/18 05:00:25;;;;;;;0.80;0.50;;;18.10;1.00;;;;;;5073692;28;20697;-58
2023/07/18 05:02:52;;;;;;;1.00;0.50;;;18.10;1.00;;;;;;5073152;28;20842;-58
2023/07/18 05:05:19;;;;;;;2.85;0.60;;;18.10;1.00;;;;;;5072541;28;20589;-58
2023/07/18 05:07:48;;;;;;;0.80;0.50;;;18.10;1.00;;;;;;5074937;28;20703;-58
2023/07/18 05:10:15;;;;;;;0.90;0.50;;;18.20;1.00;;;;;;5074045;28;20431;-58
2023/07/18 05:12:43;;;;;;;2.20;0.40;;;18.20;1.00;;;;;;5071363;28;20758;-53
2023/07/18 05:15:10;;;;;;;0.90;0.50;;;18.10;1.00;;;;;;5070793;28;20430;-52
2023/07/18 05:17:37;;;;;;;0.95;0.50;;;18.10;1.00;;;;;;5072923;28;20442;-51
2023/07/18 05:20:05;;;;;;;2.40;0.50;;;18.10;1.00;;;;;;5073901;28;20843;-53
2023/07/18 05:22:32;;;;;;;3.10;0.50;;;18.10;1.00;;;;;;5072596;28;20724;-55
2023/07/18 05:25:01;;;;;;;1.33;0.60;;;18.20;1.00;;;;;;5073626;28;20435;-55
2023/07/18 05:27:28;;;;;;;1.30;0.50;;;18.30;1.00;;;;;;5072661;28;20493;-56
2023/07/18 05:29:56;;;;;;;1.20;0.50;;;18.30;1.00;;;;;;5072878;28;20427;-51
2023/07/18 05:32:23;;;;;;;1.27;0.50;;;18.50;1.00;;;;;;5071476;28;20514;-52
2023/07/18 05:34:50;;;;;;;1.10;0.60;;;18.40;1.00;;;;;;5071626;28;20526;-53
2023/07/18 05:37:17;;;;;;;1.40;0.60;;;18.40;1.00;;;;;;5072835;28;20522;-54
2023/07/18 05:39:44;;;;;;;1.60;0.60;;;18.50;1.00;;;;;;5072974;28;20500;-54
2023/07/18 05:42:13;;;;;;;1.40;0.50;;;18.50;1.00;;;;;;5072774;28;20850;-53
2023/07/18 05:44:40;;;;;;;0.90;0.60;;;18.40;1.00;;;;;;5072076;28;20718;-55
2023/07/18 05:47:07;;;;;;;2.60;0.60;;;18.50;1.00;;;;;;5073461;28;20440;-56
2023/07/18 05:49:35;;;;;;;1.10;0.70;;;18.50;1.00;;;;;;5072234;28;21025;-54
2023/07/18 05:52:02;;;;;;;1.02;0.70;;;18.60;1.00;;;;;;5070282;28;20435;-55
2023/07/18 05:54:30;;;;;;;1.00;0.60;;;18.60;1.00;;;;;;5071475;28;20508;-54
2023/07/18 05:56:59;;;;;;;1.30;0.60;;;18.60;1.00;;;;;;5072614;28;20423;-55
2023/07/18 05:59:27;;;;;;;1.10;0.60;;;18.60;1.00;;;;;;5071717;28;20427;-55
2023/07/18 06:01:54;;;;;;;3.17;0.60;;;18.60;1.00;;;;;;5071686;28;20839;-54
2023/07/18 06:04:21;;;;;;;1.20;0.60;;;18.70;1.00;;;;;;5070636;28;20436;-53
2023/07/18 06:06:48;;;;;;;1.00;0.70;;;19.00;1.00;;;;;;5070344;28;20442;-49
2023/07/18 06:09:15;;;;;;;4.38;0.80;;;19.10;1.00;;;;;;5072718;28;20430;-54
2023/07/18 06:11:42;;;;;;;2.30;0.70;;;19.20;1.00;;;;;;5073584;28;20440;-52
2023/07/18 06:14:09;;;;;;;1.50;0.70;;;19.30;1.00;;;;;;5072172;28;20428;-52
2023/07/18 06:16:38;;;;;;;1.70;0.77;;;19.30;1.00;;;;;;5076347;28;20437;-54
2023/07/18 06:19:05;;;;;;;2.38;0.70;;;19.40;1.00;;;;;;5070292;28;20436;-52
2023/07/18 06:21:32;;;;;;;1.42;0.70;;;19.40;99.90;;;;;;5059816;28;20427;-56
2023/07/18 06:23:59;;;;;;;1.20;0.70;;;19.40;99.90;;;;;;5061567;28;20852;-54
2023/07/18 06:26:26;;;;;;;2.30;0.80;;;19.40;99.90;;;;;;5051866;28;20486;-55
2023/07/18 06:28:53;;;;;;;1.48;0.60;;;19.50;99.90;;;;;;5051665;28;20433;-55
2023/07/18 06:31:21;;;;;;;2.00;0.65;;;19.50;99.90;;;;;;5053104;28;20860;-55
2023/07/18 06:33:49;;;;;;;3.00;0.70;;;19.70;1.00;;;;;;5057157;28;20460;-54
2023/07/18 06:36:16;;;;;;;1.63;0.70;;;19.80;99.90;;;;;;5056882;28;20840;-51
2023/07/18 06:38:44;;;;;;;1.40;0.60;;;20.00;99.90;;;;;;5071823;28;20419;-52
2023/07/18 06:41:12;;;;;;;1.25;0.70;;;20.10;99.90;;;;;;5067882;28;20520;-54
2023/07/18 06:43:39;;;;;;;3.60;0.80;;;20.20;99.90;;;;;;5062804;28;20465;-54
2023/07/18 06:46:06;;;;;;;1.30;0.60;;;20.30;99.90;;;;;;5050200;28;20466;-52
2023/07/18 06:48:33;;;;;;;1.20;0.70;;;20.50;99.90;;;;;;5055435;28;20431;-55
2023/07/18 06:51:06;;;;;;;2.10;0.70;;;20.60;99.90;;;;;;5052568;28;20530;-54
2023/07/18 06:53:34;;;;;;;1.73;0.70;;;20.60;99.90;;;;;;5050919;28;20768;-54
2023/07/18 06:56:01;;;;;;;1.70;0.63;;;20.60;99.90;;;;;;5051001;28;20792;-51
2023/07/18 06:58:28;;;;;;;1.83;0.70;;;20.50;99.90;;;;;;5055084;28;20436;-51
2023/07/18 07:00:55;;;;;;;1.60;0.70;;;20.40;99.90;;;;;;5071658;28;20423;-56
2023/07/18 07:03:22;;;;;;;1.48;0.70;;;20.50;99.90;;;;;;5068621;28;20561;-55
2023/07/18 07:05:49;;;;;;;1.20;0.60;;;20.50;99.90;;;;;;5068430;28;20484;-56
2023/07/18 07:08:19;;;;;;;2.00;0.60;;;20.50;91.30;;;;;;5072785;28;20425;-54
2023/07/18 07:10:46;;;;;;;1.10;0.68;;;20.70;93.80;;;;;;5072265;28;20848;-55
2023/07/18 07:13:13;;;;;;;1.50;0.60;;;21.00;84.60;;;;;;5071826;28;20438;-55
2023/07/18 07:15:40;;;;;;;0.80;0.60;;;21.10;47.20;;;;;;5051062;28;20868;-52
2023/07/18 07:18:07;;;;;;;1.70;0.70;;;21.40;4.40;;;;;;5050323;28;20431;-56
2023/07/18 07:20:35;;;;;;;1.15;0.60;;;21.70;1.00;;;;;;5051315;28;20706;-54
2023/07/18 07:23:02;;;;;;;1.70;0.60;;;21.70;1.00;;;;;;5054617;28;20523;-53
2023/07/18 07:25:32;;;;;;;1.05;0.60;;;21.60;1.00;;;;;;5070285;28;20425;-53
2023/07/18 07:28:00;;;;;;;1.00;0.60;;;21.50;1.00;;;;;;5064863;28;20442;-53
2023/07/18 07:30:27;;;;;;;1.40;0.60;;;21.60;1.00;;;;;;5065004;28;20432;-55
2023/07/18 07:32:54;;;;;;;1.10;0.60;;;21.70;1.00;;;;;;5053387;28;20413;-51
2023/07/18 07:35:22;;;;;;;1.80;0.60;;;21.80;1.00;;;;;;5053400;28;20856;-53
2023/07/18 07:37:50;;;;;;;2.28;0.60;;;21.90;1.00;;;;;;5053624;28;20428;-52
2023/07/18 07:40:18;;;;;;;1.30;0.60;;;21.90;1.00;;;;;;5059636;28;20435;-54
2023/07/18 07:42:47;;;;;;;2.10;0.60;;;21.90;1.00;;;;;;5073848;28;20434;-53
2023/07/18 07:45:15;;;;;;;1.35;0.60;;;22.00;1.00;;;;;;5074823;28;20720;-53
2023/07/18 07:47:42;;;;;;;1.73;0.50;;;21.90;1.00;;;;;;5073310;28;20458;-53
2023/07/18 07:50:10;;;;;;;1.40;0.60;;;22.00;1.00;;;;;;5074953;28;20488;-51
2023/07/18 07:52:37;;;;;;;1.15;0.50;;;22.20;1.00;;;;;;5072661;28;20777;-58
2023/07/18 07:55:04;;;;;;;1.30;0.60;;;22.20;1.00;;;;;;5072511;28;20430;-58
2023/07/18 07:57:31;;;;;;;0.90;0.50;;;22.30;1.00;;;;;;5074407;28;20752;-58
2023/07/18 08:00:00;;;;;;;2.15;0.60;;;22.40;1.00;;;;;;5072273;28;20940;-59
2023/07/18 08:02:27;;;;;;;1.70;0.60;;;22.40;1.00;;;;;;5073037;28;20871;-57
2023/07/18 08:04:54;;;;;;;1.00;0.50;;;22.60;1.00;;;;;;5065974;28;20428;-58
2023/07/18 08:07:21;;;;;;;1.33;0.60;;;22.70;1.00;;;;;;5052520;28;20424;-58
2023/07/18 08:09:49;;;;;;;1.50;0.60;;;22.90;1.00;;;;;;5051996;28;20586;-58
2023/07/18 08:12:17;;;;;;;1.23;0.60;;;23.00;1.00;;;;;;5053776;28;20428;-58
2023/07/18 08:14:45;;;;;;;1.20;0.60;;;23.00;1.00;;;;;;5054142;28;20707;-59
2023/07/18 08:17:13;;;;;;;1.00;0.60;;;23.20;1.00;;;;;;5056844;28;20445;-59
2023/07/18 08:19:41;;;;;;;1.60;0.60;;;23.30;1.00;;;;;;5060707;28;20432;-63
2023/07/18 08:22:10;;;;;;;1.00;0.60;;;23.50;1.00;;;;;;5071182;28;20435;-60
2023/07/18 08:24:37;;;;;;;1.43;0.60;;;23.60;1.00;;;;;;5071766;28;20446;-59
2023/07/18 08:27:05;;;;;;;1.17;0.50;;;23.40;1.00;;;;;;5071311;28;20442;-59
2023/07/18 08:29:33;;;;;;;0.90;0.60;;;23.40;1.00;;;;;;5072258;28;21106;-58
2023/07/18 08:32:00;;;;;;;2.20;0.60;;;23.50;1.00;;;;;;5073174;28;21178;-58
2023/07/18 08:34:29;;;;;;;1.00;0.55;;;23.60;1.00;;;;;;5072594;28;20436;-59
2023/07/18 08:36:56;;;;;;;1.75;0.60;;;23.70;1.00;;;;;;5073736;28;20415;-59
2023/07/18 08:39:23;;;;;;;0.90;0.50;;;23.70;1.00;;;;;;5065387;28;20874;-59
2023/07/18 08:41:51;;;;;;;1.13;0.50;;;23.70;1.00;;;;;;5060862;28;20934;-58
2023/07/18 08:44:20;;;;;;;1.40;0.50;;;23.80;1.00;;;;;;5064938;28;20439;-58
2023/07/18 08:46:48;;;;;;;1.23;0.60;;;23.90;1.00;;;;;;5062807;28;20439;-58
2023/07/18 08:49:17;;;;;;;1.58;0.50;;;24.00;1.00;;;;;;5061438;28;20454;-58
2023/07/18 08:51:48;;;;;;;1.10;0.50;;;24.20;1.00;;;;;;5057733;28;20446;-57
2023/07/18 08:54:16;;;;;;;1.35;0.50;;;24.30;1.00;;;;;;5060174;28;20481;-59
2023/07/18 08:56:43;;;;;;;1.00;0.50;;;24.20;1.00;;;;;;5060055;28;20419;-58
2023/07/18 08:59:11;;;;;;;1.85;0.70;;;24.20;1.00;;;;;;5062036;28;20441;-58
2023/07/18 09:01:47;;;;;;;1.53;0.50;;;24.30;1.00;;;;;;5060958;28;20915;-58
2023/07/18 09:04:15;;;;;;;1.50;0.50;;;24.50;1.00;;;;;;5060050;28;20470;-58
2023/07/18 09:06:49;;;;;;;0.70;0.40;;;24.70;1.00;;;;;;5061878;28;20469;-58
2023/07/18 09:09:20;;;;;;;1.38;0.50;;;24.80;1.00;;;;;;5060120;28;20509;-58
2023/07/18 09:11:55;;;;;;;0.90;0.50;;;24.80;1.00;;;;;;5060740;28;20415;-57
2023/07/18 09:14:26;;;;;;;1.42;0.50;;;24.80;1.00;;;;;;5062633;28;20858;-57
2023/07/18 09:16:54;;;;;;;0.80;0.50;;;24.90;1.00;;;;;;5060280;28;20880;-57
2023/07/18 09:19:35;;;;;;;0.88;0.50;;;24.90;1.00;;;;;;5061759;28;20534;-56
2023/07/18 09:22:05;;;;;;;0.80;0.40;;;25.00;1.00;;;;;;5055152;28;20429;-59
2023/07/18 09:24:32;;;;;;;1.40;0.50;;;25.10;1.00;;;;;;5051612;28;20466;-57
2023/07/18 09:26:59;;;;;;;0.70;0.50;;;25.40;1.00;;;;;;5049875;28;20492;-58
2023/07/18 09:29:26;;;;;;;0.80;0.50;;;25.70;1.00;;;;;;5051420;28;20424;-58
2023/07/18 09:31:55;;;;;;;0.90;0.43;;;25.80;1.00;;;;;;5051144;28;20433;-58
2023/07/18 09:34:22;;;;;;;1.42;0.50;;;25.80;1.00;;;;;;5051054;28;20463;-58
2023/07/18 09:36:57;;;;;;;1.00;0.50;;;25.90;1.00;;;;;;5052649;28;20436;-58
2023/07/18 09:39:26;;;;;;;0.80;0.50;;;26.00;1.00;;;;;;5063501;28;20455;-58
2023/07/18 09:41:54;;;;;;;0.90;0.52;;;25.90;1.00;;;;;;5065654;28;20421;-57
2023/07/18 09:44:23;;;;;;;2.40;0.55;;;25.90;1.00;;;;;;5058259;28;20433;-58
2023/07/18 09:46:51;;;;;;;2.60;0.60;;;25.90;1.00;;;;;;5056141;28;21025;-55
2023/07/18 09:49:23;;;;;;;1.50;0.50;;;26.00;1.00;;;;;;5052118;28;20441;-55
2023/07/18 09:51:58;;;;;;;1.10;0.50;;;26.20;1.00;;;;;;5053224;28;20911;-58
2023/07/18 09:54:28;;;;;;;0.80;0.50;;;26.40;1.00;;;;;;5052331;28;20860;-58
2023/07/18 09:56:57;;;;;;;2.50;0.50;;;26.70;1.00;;;;;;5061300;28;20438;-58
2023/07/18 09:59:26;;;;;;;0.95;0.50;;;27.00;1.00;;;;;;5072108;28;20424;-56
2023/07/18 10:01:55;;;;;;;1.00;0.60;;;27.10;1.00;;;;;;5069003;28;20952;-56
2023/07/18 10:04:22;;;;;;;1.05;0.50;;;27.40;1.00;;;;;;5068911;28;20443;-58
2023/07/18 10:06:51;;;;;;;1.13;0.60;;;27.70;1.00;;;;;;5071046;28;20427;-58
2023/07/18 10:09:19;;;;;;;1.40;0.60;;;27.50;1.00;;;;;;5070822;28;20427;-57
2023/07/18 10:12:12;;;;;;;2.00;0.60;;;27.20;1.00;;;;;;5072355;28;20412;-58
2023/07/18 10:14:50;;;;;;;1.50;0.50;;;26.90;1.00;;;;;;5067032;28;20435;-55
2023/07/18 10:17:40;;;;;;;0.88;0.60;;;26.70;1.00;;;;;;5061833;28;20433;-56
2023/07/18 10:20:14;;;;;;;1.20;0.50;;;26.60;1.00;;;;;;5045498;28;20527;-57
2023/07/18 10:22:49;;;;;;;0.93;0.63;;;26.40;1.00;;;;;;5049316;28;20572;-58
2023/07/18 10:25:19;;;;;;;1.98;0.60;;;26.40;1.00;;;;;;5050167;28;20531;-57
2023/07/18 10:27:49;;;;;;;1.40;0.60;;;26.50;1.00;;;;;;5050810;28;20429;-57
2023/07/18 10:30:17;;;;;;;1.35;0.70;;;26.20;1.00;;;;;;5051502;28;20495;-58
2023/07/18 10:32:51;;;;;;;1.00;0.70;;;26.10;1.00;;;;;;5054727;28;20429;-57
2023/07/18 10:35:20;;;;;;;1.67;0.60;;;26.10;1.00;;;;;;5054089;28;20436;-57
2023/07/18 10:37:52;;;;;;;1.50;0.60;;;26.10;1.00;;;;;;5055070;28;20433;-58
2023/07/18 10:40:37;;;;;;;1.20;0.60;;;26.20;1.00;;;;;;5054619;28;20512;-58
2023/07/18 10:43:07;;;;;;;2.70;0.70;;;26.30;1.00;;;;;;5055817;28;20439;-58
2023/07/18 10:45:37;;;;;;;1.40;0.70;;;26.40;1.00;;;;;;5056486;28;20515;-57
2023/07/18 10:48:14;;;;;;;0.80;0.60;;;26.60;1.00;;;;;;5055407;28;20516;-54
2023/07/18 10:50:42;;;;;;;1.30;0.60;;;27.00;1.00;;;;;;5055577;28;20927;-56
2023/07/18 10:53:13;;;;;;;1.10;0.60;;;27.20;1.00;;;;;;5054669;28;20776;-56
2023/07/18 10:55:40;;;;;;;1.90;0.60;;;27.50;1.00;;;;;;5054438;28;20472;-56
2023/07/18 10:58:15;;;;;;;1.30;0.70;;;27.70;1.00;;;;;;5056672;28;20951;-59
2023/07/18 11:00:42;;;;;;;3.20;0.85;;;27.80;1.00;;;;;;5055426;28;20452;-58
2023/07/18 11:03:19;;;;;;;1.40;0.80;;;28.00;1.00;;;;;;5054006;28;20417;-56
2023/07/18 11:05:48;;;;;;;1.17;0.70;;;28.50;1.00;;;;;;5055630;28;20433;-57
2023/07/18 11:08:25;;;;;;;1.70;0.77;;;28.80;1.00;;;;;;5054517;28;20433;-59
2023/07/18 11:10:54;;;;;;;1.35;0.70;;;28.60;1.00;;;;;;5059298;28;20445;-58
2023/07/18 11:13:28;;;;;;;1.50;0.60;;;28.40;1.00;;;;;;5061673;28;20483;-59
2023/07/18 11:15:58;;;;;;;1.27;0.68;;;28.00;1.00;;;;;;5053804;28;20451;-60
2023/07/18 11:18:25;;;;;;;2.60;0.90;;;27.50;1.00;;;;;;5053987;28;20944;-60
2023/07/18 11:20:53;;;;;;;1.52;0.68;;;26.90;1.00;;;;;;5056427;28;20904;-60
2023/07/18 11:23:21;;;;;;;1.30;0.65;;;26.70;1.00;;;;;;5055642;28;20442;-61
2023/07/18 11:25:48;;;;;;;1.83;1.30;;;26.40;1.00;;;;;;5054365;28;20417;-60
2023/07/18 11:28:16;;;;;;;1.50;0.70;;;26.30;1.00;;;;;;5054191;28;20429;-59
2023/07/18 11:30:46;;;;;;;1.50;0.70;;;26.40;1.00;;;;;;5055018;28;20950;-60
2023/07/18 11:33:13;;;;;;;0.90;0.60;;;26.30;1.00;;;;;;5055953;28;20896;-60
2023/07/18 11:35:45;;;;;;;1.00;0.50;;;26.20;1.00;;;;;;5055130;28;20522;-59
2023/07/18 11:38:17;;;;;;;1.60;0.60;;;26.10;1.00;;;;;;5063211;28;20427;-60
2023/07/18 11:40:44;;;;;;;1.23;0.60;;;26.00;1.00;;;;;;5056246;28;20429;-59
2023/07/18 11:43:19;;;;;;;0.90;0.60;;;25.80;1.00;;;;;;5059504;28;20442;-60
2023/07/18 11:45:48;;;;;;;1.58;0.60;;;25.60;1.00;;;;;;5058102;28;20487;-59
2023/07/18 11:48:20;;;;;;;2.10;0.70;;;25.50;1.00;;;;;;5060664;28;20661;-59
2023/07/18 11:50:47;;;;;;;1.00;0.60;;;25.50;1.00;;;;;;5063988;28;20853;-59
2023/07/18 11:53:25;;;;;;;1.40;0.57;;;25.50;1.00;;;;;;5063381;28;20430;-57
2023/07/18 11:55:52;;;;;;;1.35;0.70;;;25.60;1.00;;;;;;5063183;28;20429;-59
2023/07/18 11:58:19;;;;;;;1.70;0.70;;;25.80;1.00;;;;;;5068904;28;20419;-59
2023/07/18 12:00:48;;;;;;;1.20;0.60;;;25.70;1.00;;;;;;5075892;28;20731;-60
2023/07/18 12:03:15;;;;;;;1.33;0.60;;;25.70;1.00;;;;;;5074958;28;20427;-59
2023/07/18 12:05:42;;;;;;;1.00;0.60;;;25.90;1.00;;;;;;5071917;28;20427;-60
2023/07/18 12:08:09;;;;;;;1.73;0.70;;;26.00;1.00;;;;;;5073969;28;20438;-60
2023/07/18 12:10:36;;;;;;;1.50;0.70;;;25.90;1.00;;;;;;5070939;28;20426;-60
2023/07/18 12:13:03;;;;;;;0.98;0.70;;;25.90;1.00;;;;;;5072438;28;20866;-59
2023/07/18 12:15:30;;;;;;;2.07;0.70;;;26.00;1.00;;;;;;5074218;28;20435;-58
2023/07/18 12:17:58;;;;;;;1.65;0.70;;;26.20;1.00;;;;;;5074038;28;20431;-59
2023/07/18 12:20:25;;;;;;;1.40;0.70;;;26.40;1.00;;;;;;5073219;28;20428;-59
2023/07/18 12:22:53;;;;;;;1.20;0.70;;;26.50;1.00;;;;;;5074279;28;20867;-60
2023/07/18 12:25:20;;;;;;;1.00;0.82;;;26.60;1.00;;;;;;5074306;28;20523;-60
2023/07/18 12:27:47;;;;;;;1.30;0.67;;;26.80;1.00;;;;;;5074059;28;20459;-59
2023/07/18 12:30:15;;;;;;;1.27;0.70;;;26.80;1.00;;;;;;5072078;28;20434;-58
2023/07/18 12:32:44;;;;;;;1.30;0.70;;;27.10;1.00;;;;;;5072411;28;20431;-57
2023/07/18 12:35:14;;;;;;;1.17;0.70;;;27.20;1.00;;;;;;5074721;28;20454;-59
2023/07/18 12:37:41;;;;;;;1.10;0.60;;;27.10;1.00;;;;;;5074290;28;20893;-58
2023/07/18 12:40:09;;;;;;;2.10;0.70;;;27.00;1.00;;;;;;5073248;28;20519;-57
2023/07/18 12:42:36;;;;;;;1.40;0.60;;;27.20;1.00;;;;;;5072083;28;20695;-57
2023/07/18 12:45:04;;;;;;;1.48;0.70;;;27.40;1.00;;;;;;5070915;28;20778;-57
2023/07/18 12:47:31;;;;;;;2.30;0.60;;;27.60;1.00;;;;;;5072383;28;20431;-58
2023/07/18 12:49:58;;;;;;;1.80;0.80;;;27.70;1.00;;;;;;5071996;28;20855;-58
2023/07/18 12:52:26;;;;;;;1.05;0.70;;;27.80;1.00;;;;;;5073522;28;20434;-58
2023/07/18 12:54:53;;;;;;;1.00;0.70;;;27.80;1.00;;;;;;5071835;28;20484;-58
2023/07/18 12:57:20;;;;;;;1.48;0.60;;;27.80;1.00;;;;;;5072964;28;20869;-58
2023/07/18 12:59:47;;;;;;;1.30;0.70;;;27.80;1.00;;;;;;5072790;28;20583;-58
2023/07/18 13:02:15;;;;;;;1.20;0.60;;;27.60;1.00;;;;;;5073670;28;20420;-59